createdAt,value
2019-05-14T00:01:03.138Z,9.30
2019-05-14T00:03:33.096Z,9.30
2019-05-14T00:06:02.426Z,9.30
2019-05-14T00:08:31.702Z,9.20
2019-05-14T00:11:01.545Z,9.10
2019-05-14T00:13:32.166Z,9.10
2019-05-14T00:16:01.910Z,8.90
2019-05-14T00:18:31.633Z,8.90
2019-05-14T00:21:01.935Z,8.90
2019-05-14T00:23:32.097Z,8.90
2019-05-14T00:26:01.916Z,8.90
2019-05-14T00:28:31.720Z,8.90
2019-05-14T00:31:02.915Z,8.80
2019-05-14T00:33:32.231Z,8.70
2019-05-14T00:36:02.124Z,8.70
2019-05-14T00:38:31.772Z,8.70
2019-05-14T00:41:02.387Z,8.60
2019-05-14T00:43:32.340Z,8.70
2019-05-14T00:46:01.939Z,8.60
2019-05-14T00:48:32.044Z,8.50
2019-05-14T00:51:02.347Z,8.50
2019-05-14T00:53:32.211Z,8.40
2019-05-14T00:56:03.160Z,8.40
2019-05-14T00:58:32.527Z,8.40
2019-05-14T01:01:01.934Z,8.40
2019-05-14T01:03:32.437Z,8.40
2019-05-14T01:06:02.963Z,8.30
2019-05-14T01:08:32.443Z,8.30
2019-05-14T01:11:01.836Z,8.30
2019-05-14T01:13:31.415Z,8.20
2019-05-14T01:16:01.530Z,8.20
2019-05-14T01:18:32.220Z,8.10
2019-05-14T01:21:01.841Z,8.10
2019-05-14T01:23:32.258Z,8.00
2019-05-14T01:26:02.320Z,8.00
2019-05-14T01:28:32.284Z,7.90
2019-05-14T01:31:01.809Z,7.90
2019-05-14T01:33:31.845Z,7.90
2019-05-14T01:36:02.169Z,7.80
2019-05-14T01:38:32.902Z,7.70
2019-05-14T01:41:02.236Z,7.70
2019-05-14T01:43:31.732Z,7.60
2019-05-14T01:46:02.324Z,7.60
2019-05-14T01:48:31.851Z,7.60
2019-05-14T01:51:01.667Z,7.50
2019-05-14T01:53:31.470Z,7.50
2019-05-14T01:56:01.612Z,7.50
2019-05-14T01:58:31.370Z,7.50
2019-05-14T02:01:02.101Z,7.40
2019-05-14T02:03:32.281Z,7.40
2019-05-14T02:06:01.777Z,7.40
2019-05-14T02:08:32.178Z,7.40
2019-05-14T02:11:01.992Z,7.30
2019-05-14T02:13:32.223Z,7.20
2019-05-14T02:16:02.163Z,7.10
2019-05-14T02:18:32.013Z,7.10
2019-05-14T02:21:01.723Z,7.10
2019-05-14T02:23:32.110Z,7.10
2019-05-14T02:26:02.627Z,7.10
2019-05-14T02:28:32.255Z,7.10
2019-05-14T02:31:03.646Z,7.00
2019-05-14T02:33:32.583Z,7.00
2019-05-14T02:36:01.953Z,6.90
2019-05-14T02:38:31.261Z,6.80
2019-05-14T02:41:02.147Z,6.80
2019-05-14T02:43:31.450Z,6.80
2019-05-14T02:46:11.451Z,6.80
2019-05-14T02:48:31.813Z,6.70
2019-05-14T02:51:01.067Z,6.70
2019-05-14T02:53:30.798Z,6.60
2019-05-14T02:56:00.627Z,6.60
2019-05-14T02:58:30.286Z,6.60
2019-05-14T03:01:00.413Z,6.50
2019-05-14T03:03:30.265Z,6.50
2019-05-14T03:06:00.546Z,6.40
2019-05-14T03:08:30.817Z,6.40
2019-05-14T03:11:00.789Z,6.40
2019-05-14T03:13:30.330Z,6.40
2019-05-14T03:15:59.821Z,6.30
2019-05-14T03:18:29.840Z,6.30
2019-05-14T03:21:00.896Z,6.30
2019-05-14T03:23:30.504Z,6.30
2019-05-14T03:26:00.717Z,6.20
2019-05-14T03:28:30.724Z,6.20
2019-05-14T03:31:02.618Z,6.10
2019-05-14T03:33:32.984Z,6.10
2019-05-14T03:36:08.738Z,6.00
2019-05-14T03:38:33.022Z,6.00
2019-05-14T03:41:02.570Z,6.00
2019-05-14T03:43:32.013Z,5.90
2019-05-14T03:46:01.187Z,6.00
2019-05-14T03:48:30.617Z,6.00
2019-05-14T03:51:00.541Z,6.00
2019-05-14T03:53:30.124Z,6.10
2019-05-14T03:56:00.292Z,6.00
2019-05-14T03:58:30.445Z,6.10
2019-05-14T04:01:03.068Z,6.00
2019-05-14T04:03:32.826Z,6.10
2019-05-14T04:06:02.936Z,6.00
2019-05-14T04:08:33.584Z,6.10
2019-05-14T04:11:02.932Z,6.10
2019-05-14T04:13:33.530Z,6.20
2019-05-14T04:16:03.863Z,6.20
2019-05-14T04:18:40.521Z,6.20
2019-05-14T04:21:10.349Z,6.20
2019-05-14T04:23:41.215Z,6.20
2019-05-14T04:26:12.735Z,6.20
2019-05-14T04:28:45.708Z,6.40
2019-05-14T04:31:18.918Z,6.40
2019-05-14T04:33:50.017Z,6.30
2019-05-14T04:36:20.044Z,6.40
2019-05-14T04:38:54.179Z,6.50
2019-05-14T04:41:20.295Z,6.60
2019-05-14T04:43:50.332Z,6.70
2019-05-14T04:46:20.390Z,6.80
2019-05-14T04:48:50.939Z,6.80
2019-05-14T04:51:20.595Z,7.00
2019-05-14T04:53:50.499Z,7.20
2019-05-14T04:56:20.056Z,7.70
2019-05-14T04:58:50.287Z,8.00
2019-05-14T05:01:21.026Z,8.70
2019-05-14T05:03:50.898Z,8.50
2019-05-14T05:06:20.500Z,8.70
2019-05-14T05:08:50.358Z,9.60
2019-05-14T05:11:21.165Z,10.10
2019-05-14T05:13:50.751Z,10.20
2019-05-14T05:16:20.085Z,9.90
2019-05-14T05:18:49.594Z,9.90
2019-05-14T05:21:19.424Z,9.70
2019-05-14T05:23:49.412Z,11.40
2019-05-14T05:26:18.852Z,11.10
2019-05-14T05:29:02.856Z,10.60
2019-05-14T05:31:19.326Z,10.60
2019-05-14T05:33:49.190Z,11.10
2019-05-14T05:36:18.743Z,10.90
2019-05-14T05:38:49.174Z,10.70
2019-05-14T05:41:19.233Z,11.10
2019-05-14T05:43:48.826Z,11.40
2019-05-14T05:46:19.209Z,11.20
2019-05-14T05:48:48.662Z,11.80
2019-05-14T05:51:18.769Z,11.50
2019-05-14T05:53:48.677Z,11.70
2019-05-14T05:56:18.706Z,11.90
2019-05-14T05:58:48.817Z,12.00
2019-05-14T06:01:19.518Z,11.50
2019-05-14T06:03:49.583Z,11.80
2019-05-14T06:06:19.406Z,12.10
2019-05-14T06:08:50.085Z,12.10
2019-05-14T06:11:19.685Z,12.40
2019-05-14T06:13:49.174Z,13.10
2019-05-14T06:16:18.840Z,12.40
2019-05-14T06:18:48.577Z,12.00
2019-05-14T06:21:19.198Z,12.20
2019-05-14T06:23:49.489Z,12.60
2019-05-14T06:26:19.554Z,13.50
2019-05-14T06:28:52.012Z,11.70
2019-05-14T06:31:21.339Z,10.90
2019-05-14T06:33:50.715Z,12.30
2019-05-14T06:36:20.078Z,12.70
2019-05-14T06:38:49.901Z,13.00
2019-05-14T06:41:19.502Z,13.30
2019-05-14T06:43:49.002Z,12.50
2019-05-14T06:46:19.451Z,13.30
2019-05-14T06:48:49.126Z,13.80
2019-05-14T06:51:19.861Z,13.90
2019-05-14T06:53:50.044Z,13.10
2019-05-14T06:56:21.786Z,13.50
2019-05-14T06:58:50.631Z,12.70
2019-05-14T07:01:20.002Z,14.60
2019-05-14T07:03:49.493Z,14.70
2019-05-14T07:06:18.975Z,14.60
2019-05-14T07:08:52.152Z,15.10
2019-05-14T07:11:19.499Z,14.40
2019-05-14T07:13:49.414Z,14.70
2019-05-14T07:16:19.694Z,14.60
2019-05-14T07:18:53.664Z,12.50
2019-05-14T07:21:20.426Z,12.90
2019-05-14T07:23:49.718Z,14.10
2019-05-14T07:26:19.555Z,14.90
2019-05-14T07:28:49.216Z,14.20
2019-05-14T07:31:18.870Z,13.60
2019-05-14T07:33:49.272Z,14.90
2019-05-14T07:36:19.303Z,15.30
2019-05-14T07:38:49.227Z,14.50
2019-05-14T07:41:19.533Z,15.30
2019-05-14T07:43:49.127Z,15.30
2019-05-14T07:46:19.220Z,14.90
2019-05-14T07:49:03.485Z,15.90
2019-05-14T07:51:19.888Z,17.60
2019-05-14T07:53:49.210Z,16.40
2019-05-14T07:56:18.943Z,15.00
2019-05-14T07:58:49.128Z,14.30
2019-05-14T08:01:19.052Z,15.20
2019-05-14T08:03:49.051Z,17.30
2019-05-14T08:06:19.067Z,17.30
2019-05-14T08:08:49.350Z,17.30
2019-05-14T08:11:19.296Z,17.70
2019-05-14T08:13:49.511Z,16.90
2019-05-14T08:16:19.234Z,16.00
2019-05-14T08:18:48.996Z,17.00
2019-05-14T08:21:19.306Z,17.50
2019-05-14T08:23:51.005Z,15.90
2019-05-14T08:26:20.375Z,15.10
2019-05-14T08:28:49.767Z,15.80
2019-05-14T08:31:19.140Z,16.70
2019-05-14T08:33:49.079Z,17.70
2019-05-14T08:36:18.773Z,16.90
2019-05-14T08:38:50.280Z,16.80
2019-05-14T08:41:19.983Z,17.70
2019-05-14T08:43:49.596Z,16.30
2019-05-14T08:46:19.338Z,15.70
2019-05-14T08:48:49.697Z,17.10
2019-05-14T08:51:19.273Z,18.00
2019-05-14T08:53:50.431Z,16.50
2019-05-14T08:56:19.579Z,18.30
2019-05-14T08:58:50.580Z,17.80
2019-05-14T09:01:19.991Z,18.10
2019-05-14T09:03:49.662Z,17.90
2019-05-14T09:06:19.296Z,16.90
2019-05-14T09:08:49.620Z,16.80
2019-05-14T09:11:24.151Z,17.10
2019-05-14T09:13:50.429Z,17.30
2019-05-14T09:16:19.875Z,16.60
2019-05-14T09:18:49.439Z,16.60
2019-05-14T09:21:20.635Z,17.10
2019-05-14T09:23:49.775Z,16.60
2019-05-14T09:26:19.103Z,16.70
2019-05-14T09:28:48.546Z,16.40
2019-05-14T09:31:19.611Z,16.50
2019-05-14T09:33:49.591Z,16.20
2019-05-14T09:36:23.584Z,17.90
2019-05-14T09:38:50.159Z,16.30
2019-05-14T09:41:19.511Z,17.80
2019-05-14T09:43:49.018Z,18.40
2019-05-14T09:46:18.739Z,17.70
2019-05-14T09:48:48.594Z,18.20
2019-05-14T09:51:18.611Z,17.80
2019-05-14T09:53:48.960Z,17.10
2019-05-14T09:56:18.871Z,15.70
2019-05-14T09:58:49.545Z,16.40
2019-05-14T10:01:19.620Z,16.60
2019-05-14T10:03:49.610Z,15.60
2019-05-14T10:06:20.660Z,16.90
2019-05-14T10:08:50.336Z,17.50
2019-05-14T10:11:19.670Z,17.60
2019-05-14T10:13:48.942Z,16.20
2019-05-14T10:16:19.100Z,14.90
2019-05-14T10:18:50.865Z,15.60
2019-05-14T10:21:19.626Z,17.00
2019-05-14T10:23:49.121Z,17.60
2019-05-14T10:26:18.785Z,18.60
2019-05-14T10:28:48.687Z,18.20
2019-05-14T10:31:18.826Z,19.90
2019-05-14T10:33:48.726Z,16.50
2019-05-14T10:36:19.193Z,16.70
2019-05-14T10:38:48.823Z,15.70
2019-05-14T10:41:18.563Z,15.90
2019-05-14T10:43:49.736Z,17.70
2019-05-14T10:46:19.547Z,16.60
2019-05-14T10:48:49.046Z,17.10
2019-05-14T10:51:18.351Z,16.30
2019-05-14T10:53:48.907Z,17.00
2019-05-14T10:56:19.072Z,15.90
2019-05-14T10:58:49.247Z,16.60
2019-05-14T11:01:21.888Z,16.00
2019-05-14T11:03:49.734Z,17.00
2019-05-14T11:06:19.093Z,17.60
2019-05-14T11:08:49.141Z,15.50
2019-05-14T11:11:18.835Z,16.90
2019-05-14T11:13:48.219Z,19.00
2019-05-14T11:16:19.053Z,18.40
2019-05-14T11:18:49.676Z,17.80
2019-05-14T11:21:26.021Z,18.20
2019-05-14T11:23:50.407Z,20.10
2019-05-14T11:26:19.953Z,18.90
2019-05-14T11:28:49.434Z,18.00
2019-05-14T11:31:19.415Z,17.90
2019-05-14T11:33:49.663Z,17.10
2019-05-14T11:36:19.452Z,19.10
2019-05-14T11:38:50.555Z,19.40
2019-05-14T11:41:20.202Z,17.00
2019-05-14T11:43:49.664Z,18.20
2019-05-14T11:46:33.665Z,17.40
2019-05-14T11:48:50.047Z,18.30
2019-05-14T11:51:45.787Z,19.30
2019-05-14T11:53:50.605Z,18.70
2019-05-14T11:56:19.952Z,17.60
2019-05-14T11:58:49.343Z,16.90
2019-05-14T12:01:19.114Z,19.40
2019-05-14T12:03:50.301Z,18.20
2019-05-14T12:06:19.599Z,18.10
2019-05-14T12:08:49.000Z,18.60
2019-05-14T12:11:19.438Z,19.30
2019-05-14T12:13:48.992Z,20.00
2019-05-14T12:16:18.291Z,19.40
2019-05-14T12:18:48.339Z,17.30
2019-05-14T12:21:17.972Z,16.50
2019-05-14T12:23:47.364Z,16.50
2019-05-14T12:26:19.104Z,16.90
2019-05-14T12:28:49.416Z,16.80
2019-05-14T12:31:18.709Z,16.90
2019-05-14T12:33:48.877Z,18.90
2019-05-14T12:36:19.331Z,18.50
2019-05-14T12:38:49.008Z,18.50
2019-05-14T12:41:19.373Z,17.50
2019-05-14T12:43:49.019Z,18.20
2019-05-14T12:46:20.199Z,17.40
2019-05-14T12:48:49.603Z,16.40
2019-05-14T12:51:19.159Z,15.30
2019-05-14T12:53:48.923Z,16.10
2019-05-14T12:56:18.936Z,17.80
2019-05-14T12:58:48.965Z,16.20
2019-05-14T13:01:20.130Z,16.10
2019-05-14T13:03:49.676Z,17.00
2019-05-14T13:06:19.280Z,17.30
2019-05-14T13:08:49.261Z,17.60
2019-05-14T13:11:18.861Z,17.50
2019-05-14T13:13:49.049Z,18.10
2019-05-14T13:16:19.260Z,17.00
2019-05-14T13:18:49.912Z,16.90
2019-05-14T13:21:19.833Z,17.20
2019-05-14T13:23:49.151Z,15.60
2019-05-14T13:26:19.070Z,16.20
2019-05-14T13:28:50.789Z,17.60
2019-05-14T13:31:19.634Z,18.30
2019-05-14T13:33:49.133Z,19.00
2019-05-14T13:36:20.282Z,18.10
2019-05-14T13:38:49.521Z,18.00
2019-05-14T13:41:21.899Z,17.40
2019-05-14T13:43:51.332Z,16.90
2019-05-14T13:46:20.634Z,16.40
2019-05-14T13:48:50.388Z,18.00
2019-05-14T13:51:19.828Z,17.00
2019-05-14T13:53:49.966Z,17.10
2019-05-14T13:56:19.491Z,17.50
2019-05-14T13:58:50.503Z,16.60
2019-05-14T14:01:19.761Z,18.20
2019-05-14T14:04:04.963Z,17.40
2019-05-14T14:06:20.981Z,17.70
2019-05-14T14:08:50.413Z,17.40
2019-05-14T14:11:19.770Z,17.00
2019-05-14T14:13:49.194Z,16.40
2019-05-14T14:16:19.755Z,16.80
2019-05-14T14:18:50.133Z,16.30
2019-05-14T14:21:20.409Z,16.80
2019-05-14T14:23:49.957Z,16.80
2019-05-14T14:26:19.333Z,16.80
2019-05-14T14:28:49.599Z,16.00
2019-05-14T14:31:19.217Z,15.70
2019-05-14T14:33:48.929Z,16.70
2019-05-14T14:36:19.971Z,16.80
2019-05-14T14:38:49.824Z,17.60
2019-05-14T14:41:19.698Z,17.00
2019-05-14T14:43:54.666Z,16.50
2019-05-14T14:46:23.091Z,17.40
2019-05-14T14:48:52.515Z,17.30
2019-05-14T14:51:21.840Z,17.70
2019-05-14T14:54:00.827Z,16.60
2019-05-14T14:56:22.162Z,16.00
2019-05-14T14:58:51.499Z,16.60
2019-05-14T15:01:20.867Z,16.60
2019-05-14T15:03:50.966Z,16.50
2019-05-14T15:06:20.741Z,15.90
2019-05-14T15:08:50.180Z,16.00
2019-05-14T15:11:19.486Z,16.70
2019-05-14T15:13:48.911Z,16.60
2019-05-14T15:16:19.963Z,17.10
2019-05-14T15:18:49.888Z,15.90
2019-05-14T15:21:19.572Z,16.10
2019-05-14T15:24:06.176Z,16.50
2019-05-14T15:26:20.012Z,16.20
2019-05-14T15:28:49.673Z,15.20
2019-05-14T15:31:19.393Z,15.90
2019-05-14T15:33:50.974Z,15.90
2019-05-14T15:36:20.075Z,15.80
2019-05-14T15:38:49.450Z,16.60
2019-05-14T15:41:20.119Z,15.80
2019-05-14T15:43:49.798Z,15.80
2019-05-14T15:46:19.075Z,16.00
2019-05-14T15:48:48.884Z,16.30
2019-05-14T15:51:19.565Z,15.60
2019-05-14T15:54:06.486Z,15.70
2019-05-14T15:56:20.095Z,15.20
2019-05-14T15:58:49.378Z,15.50
2019-05-14T16:01:19.456Z,15.30
2019-05-14T16:03:48.915Z,15.00
2019-05-14T16:06:19.324Z,14.90
2019-05-14T16:08:49.061Z,15.00
2019-05-14T16:11:18.826Z,15.80
2019-05-14T16:13:49.363Z,15.90
2019-05-14T16:16:19.658Z,15.30
2019-05-14T16:18:49.106Z,14.60
2019-05-14T16:21:18.452Z,14.50
2019-05-14T16:23:47.765Z,15.00
2019-05-14T16:26:19.058Z,14.90
2019-05-14T16:28:48.407Z,14.90
2019-05-14T16:31:18.386Z,14.80
2019-05-14T16:33:49.393Z,15.00
2019-05-14T16:36:18.885Z,15.20
2019-05-14T16:38:49.323Z,14.30
2019-05-14T16:41:18.673Z,14.80
2019-05-14T16:43:49.487Z,14.70
2019-05-14T16:46:18.970Z,14.60
2019-05-14T16:48:49.004Z,14.60
2019-05-14T16:51:19.322Z,14.40
2019-05-14T16:53:49.062Z,14.60
2019-05-14T16:56:19.133Z,13.90
2019-05-14T16:58:48.705Z,14.30
2019-05-14T17:01:19.192Z,14.50
2019-05-14T17:03:49.370Z,14.50
2019-05-14T17:06:19.018Z,14.20
2019-05-14T17:08:48.917Z,14.10
2019-05-14T17:11:18.686Z,13.80
2019-05-14T17:13:48.933Z,14.10
2019-05-14T17:16:19.668Z,13.90
2019-05-14T17:18:49.175Z,13.90
2019-05-14T17:21:18.533Z,13.70
2019-05-14T17:23:48.890Z,14.10
2019-05-14T17:26:18.549Z,14.10
2019-05-14T17:28:48.877Z,13.90
2019-05-14T17:31:19.265Z,13.60
2019-05-14T17:33:49.239Z,13.70
2019-05-14T17:36:18.988Z,13.60
2019-05-14T17:38:49.138Z,13.60
2019-05-14T17:41:19.466Z,13.70
2019-05-14T17:43:49.493Z,13.60
2019-05-14T17:46:19.056Z,13.40
2019-05-14T17:48:48.826Z,13.30
2019-05-14T17:51:18.324Z,13.40
2019-05-14T17:53:48.087Z,13.50
2019-05-14T17:56:19.062Z,13.20
2019-05-14T17:58:49.094Z,13.30
2019-05-14T18:01:18.550Z,13.10
2019-05-14T18:03:49.064Z,13.40
2019-05-14T18:06:19.016Z,13.20
2019-05-14T18:08:48.641Z,12.70
2019-05-14T18:11:19.181Z,12.50
2019-05-14T18:13:48.811Z,12.30
2019-05-14T18:16:19.127Z,12.40
2019-05-14T18:18:49.382Z,12.40
2019-05-14T18:21:18.991Z,12.50
2019-05-14T18:23:49.262Z,12.40
2019-05-14T18:26:19.037Z,12.70
2019-05-14T18:28:48.560Z,12.30
2019-05-14T18:31:20.300Z,12.40
2019-05-14T18:33:49.362Z,12.20
2019-05-14T18:36:19.191Z,12.30
2019-05-14T18:38:49.415Z,12.00
2019-05-14T18:41:19.280Z,11.90
2019-05-14T18:43:48.834Z,11.70
2019-05-14T18:46:19.189Z,11.60
2019-05-14T18:48:48.920Z,11.90
2019-05-14T18:51:19.629Z,11.60
2019-05-14T18:53:49.416Z,11.50
2019-05-14T18:56:24.012Z,11.20
2019-05-14T18:58:49.796Z,11.30
2019-05-14T19:01:19.773Z,11.50
2019-05-14T19:03:49.599Z,11.40
2019-05-14T19:06:19.053Z,11.60
2019-05-14T19:08:48.581Z,11.80
2019-05-14T19:11:18.081Z,11.30
2019-05-14T19:13:48.314Z,11.40
2019-05-14T19:16:17.937Z,11.30
2019-05-14T19:18:48.946Z,11.60
2019-05-14T19:21:18.396Z,11.20
2019-05-14T19:23:49.149Z,11.30
2019-05-14T19:26:33.064Z,11.10
2019-05-14T19:28:49.777Z,11.10
2019-05-14T19:31:19.163Z,11.10
2019-05-14T19:33:48.867Z,11.00
2019-05-14T19:36:18.845Z,11.20
2019-05-14T19:38:51.515Z,11.00
2019-05-14T19:41:23.140Z,11.00
2019-05-14T19:43:51.802Z,11.30
2019-05-14T19:46:21.266Z,11.50
2019-05-14T19:48:50.640Z,11.40
2019-05-14T19:51:19.995Z,11.40
2019-05-14T19:53:52.267Z,11.50
2019-05-14T19:56:20.315Z,11.40
2019-05-14T19:58:49.690Z,11.40
2019-05-14T20:01:19.425Z,11.30
2019-05-14T20:03:48.921Z,11.20
2019-05-14T20:06:18.803Z,11.00
2019-05-14T20:08:48.444Z,11.00
2019-05-14T20:11:19.330Z,11.00
2019-05-14T20:13:48.803Z,11.00
2019-05-14T20:16:18.518Z,10.90
2019-05-14T20:18:48.819Z,10.80
2019-05-14T20:21:18.176Z,10.60
2019-05-14T20:23:48.128Z,10.60
2019-05-14T20:26:17.672Z,10.50
2019-05-14T20:28:48.379Z,10.40
2019-05-14T20:31:18.187Z,10.40
2019-05-14T20:33:48.542Z,10.30
2019-05-14T20:36:18.758Z,10.00
2019-05-14T20:38:48.297Z,10.10
2019-05-14T20:41:18.052Z,10.20
2019-05-14T20:43:48.035Z,10.20
2019-05-14T20:46:18.548Z,10.10
2019-05-14T20:48:48.206Z,10.10
2019-05-14T20:51:18.541Z,10.00
2019-05-14T20:53:48.723Z,10.00
2019-05-14T20:56:18.958Z,9.90
2019-05-14T20:58:48.510Z,9.70
2019-05-14T21:01:18.428Z,9.70
2019-05-14T21:03:48.403Z,9.90
2019-05-14T21:06:18.844Z,9.80
2019-05-14T21:08:50.612Z,9.70
2019-05-14T21:11:20.004Z,9.60
2019-05-14T21:13:50.321Z,9.70
2019-05-14T21:16:19.918Z,9.60
2019-05-14T21:18:49.293Z,9.50
2019-05-14T21:21:18.730Z,9.40
2019-05-14T21:23:48.987Z,9.30
2019-05-14T21:26:21.335Z,9.20
2019-05-14T21:28:50.689Z,9.20
2019-05-14T21:31:20.218Z,9.10
2019-05-14T21:33:49.571Z,9.20
2019-05-14T21:36:23.655Z,9.20
2019-05-14T21:38:58.763Z,9.20
2019-05-14T21:41:32.731Z,9.00
2019-05-14T21:44:08.875Z,9.00
2019-05-14T21:46:40.388Z,9.00
2019-05-14T21:49:11.087Z,9.00
2019-05-14T21:51:40.802Z,9.00
2019-05-14T21:54:10.230Z,8.90
2019-05-14T21:56:39.527Z,8.90
2019-05-14T21:59:09.521Z,8.90
2019-05-14T22:01:39.662Z,8.80
2019-05-14T22:04:11.967Z,8.70
2019-05-14T22:06:41.606Z,8.60
2019-05-14T22:09:11.248Z,8.30
2019-05-14T22:11:40.679Z,8.30
2019-05-14T22:14:10.054Z,8.40
2019-05-14T22:16:39.416Z,8.30
2019-05-14T22:19:08.813Z,8.20
2019-05-14T22:21:41.566Z,8.20
2019-05-14T22:24:09.200Z,8.10
2019-05-14T22:26:38.915Z,8.10
2019-05-14T22:29:08.487Z,8.10
2019-05-14T22:31:38.820Z,8.00
2019-05-14T22:34:08.852Z,8.10
2019-05-14T22:36:38.855Z,8.00
2019-05-14T22:39:08.846Z,8.00
2019-05-14T22:41:38.475Z,7.90
2019-05-14T22:44:09.575Z,7.80
2019-05-14T22:46:40.333Z,7.80
2019-05-14T22:49:09.836Z,7.70
2019-05-14T22:51:39.201Z,7.80
2019-05-14T22:54:08.810Z,7.70
2019-05-14T22:56:38.966Z,7.70
2019-05-14T22:59:08.522Z,7.70
2019-05-14T23:01:38.622Z,7.70
2019-05-14T23:04:09.072Z,7.60
2019-05-14T23:06:38.576Z,7.50
2019-05-14T23:09:09.005Z,7.50
2019-05-14T23:11:38.778Z,7.40
2019-05-14T23:14:08.197Z,7.30
2019-05-14T23:16:41.298Z,7.20
2019-05-14T23:19:08.664Z,7.10
2019-05-14T23:21:39.025Z,7.20
2019-05-14T23:24:09.326Z,7.30
2019-05-14T23:26:38.843Z,7.30
2019-05-14T23:29:08.238Z,7.30
2019-05-14T23:31:38.456Z,7.20
2019-05-14T23:34:08.195Z,7.20
2019-05-14T23:36:38.796Z,7.00
2019-05-14T23:39:08.974Z,7.00
2019-05-14T23:41:38.572Z,7.00
2019-05-14T23:44:08.507Z,7.00
2019-05-14T23:46:37.921Z,6.90
2019-05-14T23:49:08.924Z,6.90
2019-05-14T23:51:38.646Z,7.00
2019-05-14T23:54:08.790Z,7.00
2019-05-14T23:56:38.627Z,6.90
2019-05-14T23:59:09.254Z,6.90
